createdAt,value
2023-01-02T00:00:21.394Z,19.20
2023-01-02T00:05:18.358Z,18.90
2023-01-02T00:10:15.601Z,19.63
2023-01-02T00:15:12.437Z,23.00
2023-01-02T00:20:10.731Z,22.67
2023-01-02T00:25:08.083Z,20.42
2023-01-02T00:30:05.741Z,18.02
2023-01-02T00:35:02.664Z,21.13
2023-01-02T00:40:00.193Z,18.17
2023-01-02T00:44:57.039Z,17.42
2023-01-02T00:49:55.001Z,16.10
2023-01-02T00:54:51.714Z,14.52
2023-01-02T00:59:49.202Z,14.82
2023-01-02T01:04:47.421Z,18.90
2023-01-02T01:09:44.419Z,21.80
2023-01-02T01:14:41.249Z,18.15
2023-01-02T01:19:38.895Z,14.07
2023-01-02T01:24:35.671Z,20.75
2023-01-02T01:29:34.183Z,12.68
2023-01-02T01:34:31.068Z,15.60
2023-01-02T01:39:28.579Z,16.75
2023-01-02T01:44:46.254Z,17.08
2023-01-02T01:49:44.348Z,20.08
2023-01-02T01:54:46.630Z,16.50
2023-01-02T01:59:46.706Z,15.77
2023-01-02T02:04:45.266Z,12.07
2023-01-02T02:09:47.227Z,12.38
2023-01-02T02:14:44.245Z,13.15
2023-01-02T02:20:07.922Z,12.63
2023-01-02T02:25:46.140Z,13.73
2023-01-02T02:30:53.029Z,11.77
2023-01-02T02:36:01.168Z,11.77
2023-01-02T02:41:10.198Z,11.80
2023-01-02T02:46:15.199Z,12.35
2023-01-02T02:51:19.173Z,11.23
2023-01-02T02:56:18.414Z,11.88
2023-01-02T03:01:18.876Z,10.93
2023-01-02T03:06:33.729Z,11.35
2023-01-02T03:11:43.442Z,8.50
2023-01-02T03:16:43.448Z,11.63
2023-01-02T03:21:42.999Z,12.25
2023-01-02T03:26:43.639Z,11.00
2023-01-02T03:31:44.294Z,10.18
2023-01-02T03:36:43.127Z,11.65
2023-01-02T03:41:44.555Z,14.15
2023-01-02T03:46:49.205Z,18.30
2023-01-02T03:51:46.239Z,16.50
2023-01-02T03:56:52.689Z,13.02
2023-01-02T04:01:56.711Z,11.07
2023-01-02T04:06:59.749Z,17.17
2023-01-02T04:12:01.999Z,13.10
2023-01-02T04:17:03.704Z,13.15
2023-01-02T04:22:07.174Z,12.15
2023-01-02T04:27:09.167Z,15.25
2023-01-02T04:32:11.561Z,13.75
2023-01-02T04:37:08.368Z,13.52
2023-01-02T04:42:05.191Z,11.95
2023-01-02T04:47:02.047Z,13.82
2023-01-02T04:51:59.606Z,13.07
2023-01-02T04:56:56.469Z,12.25
2023-01-02T05:01:53.495Z,12.13
2023-01-02T05:06:50.396Z,16.33
2023-01-02T05:11:47.821Z,14.18
2023-01-02T05:16:44.610Z,11.30
2023-01-02T05:22:11.137Z,11.45
2023-01-02T05:27:08.603Z,10.40
2023-01-02T05:32:05.805Z,14.30
2023-01-02T05:37:02.777Z,15.38
2023-01-02T05:42:00.120Z,14.15
2023-01-02T05:46:57.652Z,13.35
2023-01-02T05:51:54.558Z,13.93
2023-01-02T05:56:51.308Z,10.00
2023-01-02T06:01:48.323Z,12.93
2023-01-02T06:06:46.502Z,12.70
2023-01-02T06:11:43.765Z,13.93
2023-01-02T06:16:40.595Z,12.60
2023-01-02T06:21:37.523Z,11.57
2023-01-02T06:26:35.654Z,17.83
2023-01-02T06:31:32.834Z,14.73
2023-01-02T06:36:31.339Z,18.27
2023-01-02T06:41:28.370Z,16.52
2023-01-02T06:46:26.064Z,13.20
2023-01-02T06:51:23.868Z,15.13
2023-01-02T06:56:22.230Z,16.70
2023-01-02T07:01:21.431Z,17.08
2023-01-02T07:06:33.240Z,15.40
2023-01-02T07:11:30.209Z,17.08
2023-01-02T07:16:30.996Z,17.33
2023-01-02T07:21:30.148Z,14.23
2023-01-02T07:26:27.493Z,19.27
2023-01-02T07:31:24.443Z,20.77
2023-01-02T07:36:22.316Z,19.35
2023-01-02T07:41:28.849Z,17.20
2023-01-02T07:46:26.336Z,18.30
2023-01-02T07:51:27.627Z,18.67
2023-01-02T07:56:28.793Z,18.33
2023-01-02T08:01:25.812Z,16.98
2023-01-02T08:06:23.060Z,16.67
2023-01-02T08:11:22.108Z,20.48
2023-01-02T08:16:22.204Z,16.20
2023-01-02T08:21:19.377Z,13.18
2023-01-02T08:26:16.794Z,13.77
2023-01-02T08:31:15.714Z,16.67
2023-01-02T08:36:17.694Z,14.70
2023-01-02T08:41:39.987Z,14.90
2023-01-02T08:46:42.175Z,15.23
2023-01-02T08:51:40.578Z,14.63
2023-01-02T08:56:39.278Z,15.30
2023-01-02T09:01:40.200Z,13.43
2023-01-02T09:06:37.715Z,12.65
2023-01-02T09:11:38.785Z,11.20
2023-01-02T09:16:44.296Z,9.60
2023-01-02T09:21:41.848Z,12.05
2023-01-02T09:26:42.274Z,13.52
2023-01-02T09:31:40.283Z,11.27
2023-01-02T09:36:37.219Z,11.45
2023-01-02T09:41:36.855Z,12.20
2023-01-02T09:46:40.943Z,11.07
2023-01-02T09:51:38.142Z,7.70
2023-01-02T09:56:43.663Z,9.07
2023-01-02T10:01:54.961Z,15.13
2023-01-02T10:07:03.263Z,9.75
2023-01-02T10:12:07.567Z,9.63
2023-01-02T10:17:08.209Z,8.88
2023-01-02T10:22:07.933Z,6.53
2023-01-02T10:27:11.537Z,10.68
2023-01-02T10:32:15.259Z,11.25
2023-01-02T10:37:14.710Z,11.27
2023-01-02T10:42:14.733Z,9.30
2023-01-02T10:47:19.564Z,12.65
2023-01-02T10:52:23.665Z,11.00
2023-01-02T10:57:30.366Z,16.90
2023-01-02T11:02:31.192Z,14.93
2023-01-02T11:07:31.516Z,12.07
2023-01-02T11:12:28.532Z,18.15
2023-01-02T11:17:29.488Z,14.70
2023-01-02T11:22:35.906Z,12.07
2023-01-02T11:27:35.717Z,9.43
2023-01-02T11:32:38.726Z,9.85
2023-01-02T11:37:36.899Z,7.60
2023-01-02T11:42:59.136Z,9.07
2023-01-02T11:47:59.966Z,8.07
2023-01-02T11:53:01.469Z,8.73
2023-01-02T11:58:06.107Z,7.20
2023-01-02T12:03:06.559Z,6.37
2023-01-02T12:08:09.874Z,11.25
2023-01-02T12:13:21.639Z,12.90
2023-01-02T12:18:32.367Z,9.00
2023-01-02T12:24:09.664Z,8.15
2023-01-02T12:29:48.842Z,9.63
2023-01-02T12:35:47.241Z,10.07
2023-01-02T12:40:56.579Z,11.43
2023-01-02T12:46:07.424Z,9.98
2023-01-02T12:51:15.996Z,8.95
2023-01-02T12:56:21.595Z,10.82
2023-01-02T13:01:23.953Z,8.15
2023-01-02T13:06:43.541Z,9.05
2023-01-02T13:11:48.583Z,6.60
2023-01-02T13:16:50.737Z,8.35
2023-01-02T13:26:51.438Z,7.60
2023-01-02T13:31:51.647Z,11.18
2023-01-02T13:36:49.614Z,9.65
2023-01-02T13:42:09.589Z,8.65
2023-01-02T13:47:25.730Z,11.60
2023-01-02T13:52:24.841Z,13.00
2023-01-02T13:58:08.240Z,10.63
2023-01-02T14:03:36.669Z,14.05
2023-01-02T14:08:35.440Z,12.80
2023-01-02T14:13:40.388Z,13.45
2023-01-02T14:18:46.836Z,13.27
2023-01-02T14:24:16.422Z,14.98
2023-01-02T14:29:10.321Z,13.45
2023-01-02T14:34:10.337Z,15.60
2023-01-02T14:39:18.046Z,17.02
2023-01-02T14:44:15.669Z,15.23
2023-01-02T14:49:24.818Z,11.02
2023-01-02T14:54:27.443Z,14.88
2023-01-02T14:59:28.622Z,15.75
2023-01-02T15:04:39.428Z,15.02
2023-01-02T15:09:40.920Z,24.58
2023-01-02T15:14:39.225Z,20.33
2023-01-02T15:19:41.699Z,20.00
2023-01-02T15:24:48.022Z,37.13
2023-01-02T15:29:47.489Z,21.13
2023-01-02T15:34:49.881Z,24.48
2023-01-02T15:39:49.206Z,21.25
2023-01-02T15:45:06.984Z,27.23
2023-01-02T15:50:12.674Z,40.67
2023-01-02T15:55:14.466Z,35.80
2023-01-02T16:00:30.429Z,34.58
2023-01-02T16:05:29.001Z,37.65
2023-01-02T16:10:28.194Z,36.05
2023-01-02T16:15:29.198Z,35.20
2023-01-02T16:20:29.599Z,48.58
2023-01-02T16:25:31.229Z,46.63
2023-01-02T16:30:41.092Z,50.47
2023-01-02T16:35:39.398Z,55.72
2023-01-02T16:41:01.458Z,44.35
2023-01-02T16:45:59.781Z,56.92
2023-01-02T16:51:18.371Z,45.88
2023-01-02T16:56:21.651Z,60.42
2023-01-02T17:01:20.425Z,59.17
2023-01-02T17:07:22.811Z,53.05
2023-01-02T17:12:21.341Z,58.47
2023-01-02T17:17:18.209Z,58.90
2023-01-02T17:22:15.211Z,69.10
2023-01-02T17:27:12.428Z,68.57
2023-01-02T17:32:09.954Z,74.00
2023-01-02T17:37:07.026Z,70.30
2023-01-02T17:42:04.226Z,73.63
2023-01-02T17:47:30.679Z,62.67
2023-01-02T17:52:19.816Z,62.83
2023-01-02T17:57:16.622Z,73.18
2023-01-02T18:02:15.693Z,73.03
2023-01-02T18:07:14.003Z,72.47
2023-01-02T18:12:12.348Z,79.85
2023-01-02T18:17:13.631Z,61.38
2023-01-02T18:22:14.991Z,77.22
2023-01-02T18:27:23.682Z,81.35
2023-01-02T18:32:27.854Z,76.90
2023-01-02T18:37:26.676Z,88.60
2023-01-02T18:42:26.424Z,82.82
2023-01-02T18:47:28.108Z,93.13
2023-01-02T18:52:27.170Z,82.80
2023-01-02T18:57:35.657Z,78.30
2023-01-02T19:02:39.077Z,81.20
2023-01-02T19:07:39.244Z,76.38
2023-01-02T19:13:06.744Z,71.38
2023-01-02T19:18:46.805Z,80.65
2023-01-02T19:23:47.512Z,95.25
2023-01-02T19:29:06.909Z,101.18
2023-01-02T19:34:16.831Z,111.03
2023-01-02T19:39:25.106Z,91.30
2023-01-02T19:44:24.420Z,103.03
2023-01-02T19:49:24.265Z,118.43
2023-01-02T19:54:21.621Z,113.10
2023-01-02T19:59:18.640Z,112.00
2023-01-02T20:04:16.870Z,100.85
2023-01-02T20:09:13.747Z,116.32
2023-01-02T20:14:10.787Z,119.25
2023-01-02T20:19:07.849Z,115.72
2023-01-02T20:24:06.094Z,125.90
2023-01-02T20:29:05.082Z,128.52
2023-01-02T20:34:11.143Z,112.97
2023-01-02T20:39:16.467Z,116.93
2023-01-02T20:44:18.240Z,117.60
2023-01-02T20:49:15.164Z,108.68
2023-01-02T20:54:12.638Z,111.97
2023-01-02T20:59:09.644Z,109.57
2023-01-02T21:04:09.795Z,99.22
2023-01-02T21:09:23.153Z,105.43
2023-01-02T21:14:19.927Z,97.53
2023-01-02T21:19:16.786Z,94.95
2023-01-02T21:24:13.661Z,90.47
2023-01-02T21:29:11.291Z,93.47
2023-01-02T21:34:08.084Z,96.63
2023-01-02T21:39:05.132Z,92.93
2023-01-02T21:44:01.893Z,101.57
2023-01-02T21:48:59.459Z,108.63
2023-01-02T21:53:56.191Z,101.90
2023-01-02T21:58:54.367Z,107.32
2023-01-02T22:03:51.918Z,108.47
2023-01-02T22:08:49.443Z,103.18
2023-01-02T22:13:46.338Z,96.70
2023-01-02T22:18:43.121Z,101.40
2023-01-02T22:23:39.876Z,104.13
2023-01-02T22:28:37.412Z,96.13
2023-01-02T22:33:36.073Z,115.30
2023-01-02T22:38:33.027Z,111.28
2023-01-02T22:43:34.910Z,108.03
2023-01-02T22:48:34.579Z,102.68
2023-01-02T22:53:33.583Z,106.00
2023-01-02T22:58:30.359Z,108.57
2023-01-02T23:03:29.049Z,100.50
2023-01-02T23:08:26.667Z,93.50
2023-01-02T23:13:23.593Z,87.43
2023-01-02T23:18:38.093Z,76.50
2023-01-02T23:23:35.727Z,76.10
2023-01-02T23:29:05.404Z,76.43
2023-01-02T23:33:49.732Z,67.20
2023-01-02T23:38:47.158Z,75.28
2023-01-02T23:43:44.009Z,70.15
2023-01-02T23:48:40.807Z,73.50
2023-01-02T23:53:37.629Z,70.05
2023-01-02T23:58:35.767Z,76.35
